Time;durP1;ratioP1;P1;durP2;ratioP2;P2;SDS_P1;SDS_P2;PMS_P1;PMS_P2;Temp;Humidity;BMP_temperature;BMP_pressure;BME280_temperature;BME280_humidity;BME280_pressure;Samples;Min_cycle;Max_cycle;Signal;HPM_P1;HPM_P2
2022/03/15 00:01:11;;;;;;;62.20;36.80;;;;;;;2.58;68.38;101536.81;5071943;28;20199;-66
2022/03/15 00:03:38;;;;;;;59.07;37.27;;;;;;;2.57;68.40;101535.13;5071569;28;20192;-66
2022/03/15 00:06:06;;;;;;;51.10;30.57;;;;;;;2.60;68.80;101529.72;5072545;28;21009;-66
2022/03/15 00:08:33;;;;;;;75.80;39.10;;;;;;;2.64;68.55;101532.97;5071684;28;20558;-66
2022/03/15 00:11:05;;;;;;;66.53;32.73;;;;;;;2.43;68.76;101526.44;5071447;28;20430;-66
2022/03/15 00:13:32;;;;;;;53.13;28.53;;;;;;;2.37;69.29;101527.66;5072302;28;20791;-65
2022/03/15 00:16:01;;;;;;;42.83;25.37;;;;;;;2.34;69.91;101527.00;5071789;28;20511;-66
2022/03/15 00:18:30;;;;;;;33.07;21.50;;;;;;;2.29;69.40;101523.84;5071387;28;20482;-66
2022/03/15 00:20:57;;;;;;;37.23;22.87;;;;;;;2.28;70.15;101528.22;5071994;28;20470;-66
2022/03/15 00:23:25;;;;;;;43.83;25.50;;;;;;;2.36;69.84;101527.75;5071718;28;20441;-66
2022/03/15 00:25:53;;;;;;;51.13;29.77;;;;;;;2.39;69.95;101515.31;5072477;28;20434;-66
2022/03/15 00:28:22;;;;;;;41.83;23.00;;;;;;;2.41;68.92;101518.66;5073644;28;20503;-66
2022/03/15 00:30:49;;;;;;;39.23;23.23;;;;;;;2.42;68.53;101524.75;5075556;28;20520;-65
2022/03/15 00:33:16;;;;;;;38.70;24.03;;;;;;;2.40;69.67;101522.22;5076126;28;20755;-65
2022/03/15 00:35:43;;;;;;;38.20;22.80;;;;;;;2.39;69.52;101525.78;5075346;28;20450;-66
2022/03/15 00:38:10;;;;;;;35.97;22.23;;;;;;;2.42;69.14;101520.38;5075216;28;20491;-66
2022/03/15 00:40:39;;;;;;;36.03;23.67;;;;;;;2.43;69.00;101522.03;5074814;28;20456;-66
2022/03/15 00:43:06;;;;;;;32.40;23.03;;;;;;;2.45;69.53;101522.78;5075137;28;20524;-66
2022/03/15 00:45:33;;;;;;;38.20;23.43;;;;;;;2.49;69.46;101521.66;5075136;28;20438;-65
2022/03/15 00:47:59;;;;;;;40.67;23.50;;;;;;;2.49;69.50;101520.81;5085774;28;20436;-66
2022/03/15 00:50:30;;;;;;;34.23;22.37;;;;;;;2.47;69.58;101522.69;5094882;28;21003;-66
2022/03/15 00:52:59;;;;;;;33.50;22.50;;;;;;;2.43;70.03;101516.81;5096121;28;20514;-66
2022/03/15 00:55:25;;;;;;;32.00;21.03;;;;;;;2.32;69.54;101514.00;5095414;28;20441;-65
2022/03/15 00:57:53;;;;;;;30.47;21.13;;;;;;;2.31;70.43;101521.94;5095446;28;20432;-65
2022/03/15 01:00:22;;;;;;;38.03;22.10;;;;;;;2.36;70.33;101517.25;5094773;28;20502;-65
2022/03/15 01:02:49;;;;;;;33.30;22.37;;;;;;;2.37;70.09;101517.16;5094737;28;20437;-65
2022/03/15 01:05:16;;;;;;;38.00;22.93;;;;;;;2.43;70.10;101522.03;5095024;28;20468;-65
2022/03/15 01:07:43;;;;;;;39.37;22.77;;;;;;;2.43;68.90;101511.56;5095706;28;20449;-65
2022/03/15 01:10:10;;;;;;;36.47;22.77;;;;;;;2.42;69.37;101511.66;5094834;28;20532;-66
2022/03/15 01:12:37;;;;;;;37.30;21.77;;;;;;;2.42;70.01;101512.50;5094849;28;20498;-66
2022/03/15 01:15:07;;;;;;;35.30;23.60;;;;;;;2.44;70.23;101504.50;5094784;28;20441;-65
2022/03/15 01:17:34;;;;;;;39.83;22.90;;;;;;;2.45;69.79;101507.03;5094359;28;20869;-65
2022/03/15 01:20:00;;;;;;;36.83;22.27;;;;;;;2.47;69.39;101506.94;5094406;28;20444;-66
2022/03/15 01:22:27;;;;;;;40.33;23.43;;;;;;;2.47;69.38;101499.09;5094325;28;20506;-66
2022/03/15 01:24:54;;;;;;;35.70;23.13;;;;;;;2.47;70.01;101496.47;5094241;28;20862;-65
2022/03/15 01:27:21;;;;;;;36.00;23.80;;;;;;;2.47;69.77;101492.06;5094252;28;20874;-66
2022/03/15 01:29:47;;;;;;;29.67;21.97;;;;;;;2.46;69.72;101490.41;5094442;28;20480;-65
2022/03/15 01:32:16;;;;;;;37.37;23.63;;;;;;;2.31;69.43;101488.72;5094696;28;20533;-66
2022/03/15 01:34:43;;;;;;;33.10;22.27;;;;;;;2.15;70.41;101485.34;5094065;28;20980;-66
2022/03/15 01:37:09;;;;;;;36.07;23.50;;;;;;;1.99;70.80;101483.75;5094348;28;20444;-66
2022/03/15 01:39:37;;;;;;;33.77;22.73;;;;;;;1.85;70.74;101483.75;5093515;28;20445;-66
2022/03/15 01:42:04;;;;;;;41.90;23.47;;;;;;;1.68;72.08;101473.44;5094011;28;20976;-65
2022/03/15 01:44:33;;;;;;;32.40;23.10;;;;;;;1.73;72.65;101481.88;5094469;28;20433;-65
2022/03/15 01:47:00;;;;;;;37.17;24.27;;;;;;;1.53;72.76;101474.34;5093794;28;20498;-65
2022/03/15 01:49:29;;;;;;;41.07;24.33;;;;;;;1.45;73.28;101477.41;5094004;28;20480;-66
2022/03/15 01:51:56;;;;;;;44.60;26.60;;;;;;;1.39;73.31;101472.53;5094079;28;20499;-66
2022/03/15 01:54:22;;;;;;;42.63;24.07;;;;;;;1.38;73.98;101470.84;5093711;28;20449;-66
2022/03/15 01:56:49;;;;;;;35.53;24.37;;;;;;;1.42;73.38;101466.31;5093721;28;20471;-66
2022/03/15 01:59:17;;;;;;;37.00;23.27;;;;;;;1.42;74.38;101472.34;5093614;28;20445;-66
2022/03/15 02:01:46;;;;;;;39.33;23.57;;;;;;;1.43;73.95;101476.66;5093597;28;20437;-66
2022/03/15 02:04:13;;;;;;;32.30;23.13;;;;;;;1.40;73.75;101471.63;5093776;28;20560;-66
2022/03/15 02:06:44;;;;;;;39.70;24.00;;;;;;;1.38;74.13;101475.25;5093480;28;20494;-66
2022/03/15 02:09:12;;;;;;;39.67;25.00;;;;;;;1.29;74.24;101476.63;5094037;28;20468;-65
2022/03/15 02:11:39;;;;;;;47.47;26.23;;;;;;;1.26;74.42;101482.03;5093381;28;20437;-65
2022/03/15 02:14:06;;;;;;;39.77;25.77;;;;;;;1.14;74.90;101482.72;5093325;28;20445;-65
2022/03/15 02:16:33;;;;;;;45.40;26.23;;;;;;;1.10;75.21;101486.47;5093466;28;20850;-65
2022/03/15 02:19:01;;;;;;;47.57;26.80;;;;;;;0.97;75.22;101488.09;5093506;28;20442;-65
2022/03/15 02:21:30;;;;;;;60.53;27.53;;;;;;;0.86;75.16;101485.22;5093682;28;20437;-65
2022/03/15 02:23:57;;;;;;;50.53;28.70;;;;;;;0.85;75.89;101491.41;5094292;28;20428;-65
2022/03/15 02:26:24;;;;;;;52.20;26.20;;;;;;;0.82;76.16;101491.59;5093097;28;20437;-65
2022/03/15 02:28:51;;;;;;;47.77;26.03;;;;;;;0.82;76.04;101495.97;5093271;28;20437;-66
2022/03/15 02:31:19;;;;;;;41.40;24.47;;;;;;;0.73;75.82;101502.53;5093561;28;20458;-65
2022/03/15 02:33:46;;;;;;;38.40;22.63;;;;;;;0.79;76.46;101507.44;5093139;28;20526;-65
2022/03/15 02:36:13;;;;;;;37.77;23.93;;;;;;;0.91;75.98;101508.53;5093211;28;20441;-65
2022/03/15 02:38:41;;;;;;;37.37;23.73;;;;;;;0.96;75.80;101525.66;5093186;28;20790;-65
2022/03/15 02:41:07;;;;;;;41.53;22.40;;;;;;;1.04;75.51;101518.22;5093056;28;20434;-65
2022/03/15 02:43:34;;;;;;;42.27;24.10;;;;;;;1.14;75.01;101522.00;5092788;28;20437;-65
2022/03/15 02:46:01;;;;;;;36.57;22.87;;;;;;;1.17;74.85;101521.81;5093064;28;20438;-65
2022/03/15 02:48:27;;;;;;;33.60;21.60;;;;;;;1.24;73.77;101517.94;5092930;28;20445;-66
2022/03/15 02:50:58;;;;;;;38.87;23.20;;;;;;;1.28;74.27;101521.22;5092844;28;20472;-65
2022/03/15 02:53:25;;;;;;;42.77;23.63;;;;;;;1.25;74.31;101522.22;5093245;28;20482;-66
2022/03/15 02:55:53;;;;;;;41.60;21.60;;;;;;;1.31;74.10;101531.50;5092933;28;20437;-66
2022/03/15 02:58:20;;;;;;;31.70;21.57;;;;;;;1.35;74.77;101518.16;5092840;28;20494;-66
2022/03/15 03:00:47;;;;;;;31.97;22.17;;;;;;;1.38;74.25;101512.75;5092501;28;21017;-66
2022/03/15 03:03:14;;;;;;;35.13;22.77;;;;;;;1.34;74.10;101511.22;5092475;28;20444;-66
2022/03/15 03:05:41;;;;;;;35.37;21.20;;;;;;;1.29;74.14;101494.94;5093235;28;20541;-65
2022/03/15 03:08:07;;;;;;;32.43;21.73;;;;;;;1.32;73.76;101505.25;5092336;28;20443;-65
2022/03/15 03:10:34;;;;;;;33.83;21.47;;;;;;;1.31;74.74;101508.78;5092179;28;20526;-65
2022/03/15 03:13:02;;;;;;;35.90;21.87;;;;;;;1.32;73.79;101512.25;5092611;28;20443;-65
2022/03/15 03:15:32;;;;;;;29.93;20.53;;;;;;;1.10;74.51;101499.53;5092266;28;20493;-65
2022/03/15 03:17:58;;;;;;;31.30;20.57;;;;;;;1.19;74.58;101491.19;5092518;28;20464;-65
2022/03/15 03:20:27;;;;;;;32.40;21.13;;;;;;;1.22;74.15;101485.75;5092525;28;20445;-65
2022/03/15 03:22:54;;;;;;;31.97;21.73;;;;;;;1.27;74.07;101483.75;5092730;28;20486;-65
2022/03/15 03:25:21;;;;;;;35.17;19.87;;;;;;;1.34;74.26;101474.56;5092473;28;20437;-65
2022/03/15 03:27:48;;;;;;;35.40;22.57;;;;;;;1.36;73.26;101467.50;5092717;28;20441;-65
2022/03/15 03:30:16;;;;;;;32.20;21.03;;;;;;;1.45;73.20;101480.03;5092035;28;20529;-65
2022/03/15 03:32:43;;;;;;;32.63;21.17;;;;;;;1.49;73.23;101476.31;5092085;28;20474;-65
2022/03/15 03:35:10;;;;;;;31.27;21.27;;;;;;;1.50;73.28;101470.13;5092271;28;20859;-65
2022/03/15 03:37:37;;;;;;;40.63;22.53;;;;;;;1.49;72.58;101457.13;5092010;28;20944;-65
2022/03/15 03:40:07;;;;;;;30.80;21.07;;;;;;;1.50;72.67;101458.81;5092017;28;20948;-66
2022/03/15 03:42:34;;;;;;;28.90;20.40;;;;;;;1.57;72.97;101466.22;5092480;28;20449;-66
2022/03/15 03:45:01;;;;;;;31.87;20.33;;;;;;;1.62;71.82;101469.41;5092796;28;20498;-65
2022/03/15 03:47:29;;;;;;;29.10;20.17;;;;;;;1.67;71.67;101469.97;5092179;28;20499;-66
2022/03/15 03:49:56;;;;;;;30.07;19.43;;;;;;;1.68;71.29;101463.81;5091832;28;20472;-65
2022/03/15 03:52:23;;;;;;;34.50;19.73;;;;;;;1.69;71.47;101465.50;5092247;28;20441;-65
2022/03/15 03:54:49;;;;;;;30.43;20.43;;;;;;;1.66;71.43;101455.19;5091858;28;20448;-66
2022/03/15 03:57:16;;;;;;;29.13;19.87;;;;;;;1.63;71.71;101460.59;5092425;28;20497;-65
2022/03/15 03:59:43;;;;;;;30.60;20.93;;;;;;;1.66;71.67;101465.69;5092410;28;20474;-66
2022/03/15 04:02:09;;;;;;;32.10;21.47;;;;;;;1.62;71.67;101453.69;5091886;28;20429;-66
2022/03/15 04:04:38;;;;;;;38.13;20.03;;;;;;;1.61;71.42;101457.25;5095645;28;21021;-66
2022/03/15 04:07:07;;;;;;;30.53;19.43;;;;;;;1.65;71.57;101463.16;5095525;28;20940;-66
2022/03/15 04:09:34;;;;;;;27.53;18.87;;;;;;;1.66;71.46;101463.06;5095796;28;20480;-66
2022/03/15 04:12:01;;;;;;;31.13;19.30;;;;;;;1.62;71.68;101468.56;5095690;28;20490;-66
2022/03/15 04:14:28;;;;;;;27.23;18.70;;;;;;;1.60;72.02;101455.56;5095829;28;20439;-65
2022/03/15 04:16:55;;;;;;;35.90;19.13;;;;;;;1.62;71.56;101458.94;5095834;28;20444;-65
2022/03/15 04:19:22;;;;;;;27.23;19.67;;;;;;;1.58;71.72;101454.81;5095876;28;20441;-65
2022/03/15 04:21:50;;;;;;;36.37;20.57;;;;;;;1.57;71.90;101447.91;5095559;28;20443;-65
2022/03/15 04:24:18;;;;;;;29.77;19.30;;;;;;;1.58;72.07;101440.88;5095976;28;20433;-65
2022/03/15 04:26:46;;;;;;;30.03;20.83;;;;;;;1.63;71.70;101444.91;5095371;28;20470;-65
2022/03/15 04:29:12;;;;;;;37.30;20.40;;;;;;;1.54;71.84;101450.69;5095707;28;20442;-65
2022/03/15 04:31:39;;;;;;;35.17;20.17;;;;;;;1.58;71.96;101456.56;5095176;28;20526;-65
2022/03/15 04:34:07;;;;;;;32.33;20.30;;;;;;;1.53;71.84;101469.09;5096110;28;20440;-65
2022/03/15 04:36:35;;;;;;;47.80;28.03;;;;;;;1.34;72.17;101464.09;5095187;28;21014;-65
2022/03/15 04:39:04;;;;;;;43.00;25.10;;;;;;;1.25;72.73;101448.94;5095829;28;20443;-66
2022/03/15 04:41:30;;;;;;;43.87;26.40;;;;;;;1.21;73.36;101447.44;5095645;28;20517;-66
2022/03/15 04:43:57;;;;;;;38.63;24.43;;;;;;;1.21;74.08;101449.19;5095089;28;21009;-67
2022/03/15 04:46:24;;;;;;;36.00;24.27;;;;;;;1.17;73.63;101456.41;5094659;28;20830;-66
2022/03/15 04:48:53;;;;;;;36.23;21.93;;;;;;;1.22;73.46;101449.13;5094995;28;20445;-67
2022/03/15 04:51:20;;;;;;;31.03;21.90;;;;;;;1.23;73.93;101445.59;5094877;28;20472;-66
2022/03/15 04:53:48;;;;;;;30.13;22.57;;;;;;;1.15;74.48;101446.94;5095049;28;20471;-66
2022/03/15 04:56:17;;;;;;;39.83;21.70;;;;;;;1.16;74.61;101448.63;5094756;28;20956;-66
2022/03/15 04:58:44;;;;;;;38.23;23.27;;;;;;;1.10;74.03;101449.81;5095441;28;20456;-67
2022/03/15 05:01:11;;;;;;;47.60;23.10;;;;;;;1.03;74.65;101448.50;5095529;28;20494;-66
2022/03/15 05:03:38;;;;;;;46.20;26.13;;;;;;;1.12;74.77;101463.69;5095193;28;20437;-67
2022/03/15 05:06:05;;;;;;;50.33;26.57;;;;;;;1.26;74.26;101465.50;5095313;28;20477;-66
2022/03/15 05:08:31;;;;;;;42.10;26.07;;;;;;;1.66;73.58;101468.28;5094534;28;20950;-66
2022/03/15 05:11:06;;;;;;;34.90;23.50;;;;;;;2.00;71.66;101470.56;5093046;28;20513;-66
2022/03/15 05:13:36;;;;;;;51.83;24.17;;;;;;;2.17;71.59;101465.13;5094002;28;20943;-64
2022/03/15 05:16:04;;;;;;;40.97;22.03;;;;;;;2.56;69.39;101470.50;5093773;28;20445;-64
2022/03/15 05:18:30;;;;;;;43.83;22.77;;;;;;;2.54;68.10;101475.03;5094625;28;20870;-64
2022/03/15 05:20:57;;;;;;;40.03;24.43;;;;;;;2.56;68.32;101488.88;5094364;28;20514;-64
2022/03/15 05:23:24;;;;;;;40.47;22.87;;;;;;;2.83;68.45;101489.75;5094618;28;20433;-64
2022/03/15 05:25:50;;;;;;;41.83;24.57;;;;;;;3.08;66.30;101502.97;5094074;28;21018;-66
2022/03/15 05:28:17;;;;;;;45.63;23.00;;;;;;;3.49;66.70;101503.72;5094855;28;20503;-68
2022/03/15 05:30:45;;;;;;;34.17;18.93;;;;;;;3.97;62.31;101500.38;5085957;28;20777;-65
2022/03/15 05:33:12;;;;;;;33.27;18.67;;;;;;;4.35;61.26;101511.75;5091184;28;20203;-65
2022/03/15 05:35:39;;;;;;;43.73;20.10;;;;;;;4.70;58.91;101525.88;5093421;28;20199;-66
2022/03/15 05:38:05;;;;;;;29.23;18.97;;;;;;;4.91;58.27;101523.50;5083538;28;20195;-65
2022/03/15 05:40:33;;;;;;;46.17;26.17;;;;;;;5.20;56.04;101525.69;5073645;28;20253;-66
2022/03/15 05:43:00;;;;;;;29.43;20.70;;;;;;;5.29;56.35;101521.53;5073620;28;20271;-67
2022/03/15 05:45:27;;;;;;;23.40;15.60;;;;;;;5.34;55.61;101512.34;5074218;28;20189;-67
2022/03/15 05:47:55;;;;;;;44.17;19.10;;;;;;;5.13;55.67;101523.63;5073078;28;20196;-68
2022/03/15 05:50:22;;;;;;;24.33;14.20;;;;;;;4.80;56.17;101520.78;5074333;28;20219;-67
2022/03/15 05:52:49;;;;;;;26.20;14.30;;;;;;;4.43;57.35;101516.44;5074278;28;20196;-67
2022/03/15 05:55:16;;;;;;;28.00;14.50;;;;;;;4.28;57.45;101523.63;5073287;28;20204;-68
2022/03/15 05:57:43;;;;;;;21.10;14.17;;;;;;;4.24;58.49;101502.88;5073688;28;20188;-67
2022/03/15 06:00:11;;;;;;;29.17;15.63;;;;;;;4.46;57.80;101524.97;5073473;28;20230;-67
2022/03/15 06:02:38;;;;;;;24.60;17.13;;;;;;;4.48;57.97;101524.84;5073166;28;20516;-66
2022/03/15 06:05:07;;;;;;;85.77;27.07;;;;;;;4.69;57.74;101533.88;5073233;28;20236;-68
2022/03/15 06:07:34;;;;;;;37.17;20.70;;;;;;;4.76;57.00;101533.34;5073360;28;20203;-68
2022/03/15 06:10:03;;;;;;;18.13;14.27;;;;;;;4.99;56.40;101527.25;5072493;28;20732;-68
2022/03/15 06:12:29;;;;;;;17.50;13.80;;;;;;;5.01;55.83;101517.47;5073495;28;20207;-67
2022/03/15 06:14:56;;;;;;;14.93;13.13;;;;;;;5.05;55.89;101511.00;5074026;28;20195;-69
2022/03/15 06:17:23;;;;;;;21.93;13.03;;;;;;;5.26;55.81;101527.88;5072778;28;20199;-68
2022/03/15 06:19:49;;;;;;;22.87;15.10;;;;;;;5.12;56.30;101528.06;5073302;28;20643;-68
2022/03/15 06:22:18;;;;;;;25.57;13.20;;;;;;;5.14;56.08;101523.50;5072701;28;20268;-70
2022/03/15 06:24:44;;;;;;;22.77;13.83;;;;;;;5.45;55.61;101522.94;5072865;28;20199;-69
2022/03/15 06:27:11;;;;;;;29.87;15.27;;;;;;;5.48;55.33;101500.78;5072312;28;20200;-68
2022/03/15 06:29:38;;;;;;;29.63;14.30;;;;;;;5.81;55.21;101513.25;5073030;28;20194;-68
2022/03/15 06:32:05;;;;;;;24.27;13.80;;;;;;;6.21;51.54;101519.78;5071581;28;20718;-68
2022/03/15 06:34:32;;;;;;;23.10;12.90;;;;;;;6.55;66.39;101487.13;5082512;28;20191;-75
2022/03/15 06:37:00;;;;;;;23.50;15.90;;;;;;;7.56;52.48;101498.94;5083919;28;20201;-69
2022/03/15 06:39:28;;;;;;;20.10;13.83;;;;;;;7.73;47.66;101516.06;5076897;28;20209;-69
2022/03/15 06:41:55;;;;;;;12.93;11.67;;;;;;;8.03;56.91;101502.88;5089617;28;20204;-67
2022/03/15 06:44:21;;;;;;;26.27;11.37;;;;;;;9.00;51.98;101490.75;5081079;28;20580;-62
2022/03/15 06:46:48;;;;;;;14.43;10.60;;;;;;;9.99;43.21;101502.69;5072795;28;20205;-64
2022/03/15 06:49:15;;;;;;;10.40;9.43;;;;;;;10.69;41.72;101516.31;5072977;28;20277;-63
2022/03/15 06:51:41;;;;;;;76.97;13.03;;;;;;;10.52;38.41;101502.00;5072591;28;20223;-67
2022/03/15 06:54:08;;;;;;;31.50;11.47;;;;;;;10.35;38.97;101521.38;5071979;28;20221;-67
2022/03/15 06:56:39;;;;;;;13.47;11.40;;;;;;;10.53;43.64;101518.78;5072894;28;20283;-68
2022/03/15 06:59:06;;;;;;;18.53;12.20;;;;;;;10.33;39.67;101522.47;5092767;28;20565;-68
2022/03/15 07:01:34;;;;;;;21.53;13.87;;;;;;;10.65;39.12;101517.59;5091272;28;20215;-68
2022/03/15 07:04:00;;;;;;;17.10;13.27;;;;;;;10.78;38.53;101508.28;5072783;28;20203;-66
2022/03/15 07:06:27;;;;;;;14.17;12.47;;;;;;;10.60;38.59;101503.91;5079480;28;20185;-68
2022/03/15 07:08:54;;;;;;;25.90;11.67;;;;;;;10.49;38.66;101501.44;5076973;28;20306;-71
2022/03/15 07:11:20;;;;;;;26.40;12.17;;;;;;;10.51;39.14;101505.63;5072029;28;20231;-70
2022/03/15 07:13:49;;;;;;;14.10;12.60;;;;;;;10.25;39.72;101498.47;5070885;28;20668;-70
2022/03/15 07:16:15;;;;;;;19.60;12.57;;;;;;;10.35;45.83;101502.78;5105722;28;20264;-70
2022/03/15 07:18:42;;;;;;;19.17;10.70;;;;;;;11.24;41.72;101509.97;5102913;28;20295;-70
2022/03/15 07:21:09;;;;;;;19.20;12.97;;;;;;;11.56;40.37;101510.25;5071593;28;20198;-71
2022/03/15 07:23:36;;;;;;;17.37;12.33;;;;;;;11.73;38.80;101513.94;5071873;28;20286;-71
2022/03/15 07:26:02;;;;;;;32.73;13.03;;;;;;;11.63;38.76;101508.69;5071667;28;20271;-72
2022/03/15 07:28:29;;;;;;;14.37;11.63;;;;;;;11.43;39.16;101509.81;5072469;28;20247;-71
2022/03/15 07:30:57;;;;;;;37.00;12.67;;;;;;;12.00;38.25;101519.16;5071425;28;20232;-72
2022/03/15 07:33:24;;;;;;;21.47;11.40;;;;;;;12.40;37.84;101506.91;5071560;28;20232;-71
2022/03/15 07:35:51;;;;;;;17.93;12.60;;;;;;;12.77;35.95;101510.06;5068283;28;20607;-71
2022/03/15 07:38:19;;;;;;;92.50;15.63;;;;;;;12.63;37.26;101502.69;5070636;28;20196;-72
2022/03/15 07:40:46;;;;;;;24.00;11.97;;;;;;;12.86;36.79;101503.75;5080717;28;20201;-74
2022/03/15 07:43:13;;;;;;;11.13;10.03;;;;;;;12.63;35.63;101496.50;5091929;28;20203;-79
2022/03/15 07:45:40;;;;;;;23.73;10.80;;;;;;;12.89;36.34;101503.44;5071949;28;20251;-79
2022/03/15 07:48:08;;;;;;;21.43;10.17;;;;;;;13.29;36.09;101500.06;5077994;28;20210;-82
2022/03/15 07:50:36;;;;;;;16.37;10.17;;;;;;;13.42;33.82;101485.25;5092525;28;20195;-78
2022/03/15 07:53:03;;;;;;;28.30;9.67;;;;;;;13.69;33.90;101492.91;5080804;28;20637;-78
2022/03/15 07:55:30;;;;;;;12.50;9.47;;;;;;;13.78;32.51;101494.59;5071943;28;20192;-70
2022/03/15 07:57:56;;;;;;;11.10;10.03;;;;;;;13.37;33.02;101492.06;5071299;28;20199;-69
2022/03/15 08:00:23;;;;;;;11.77;9.10;;;;;;;13.18;33.45;101498.56;5076210;28;20254;-68
2022/03/15 08:02:51;;;;;;;119.70;14.70;;;;;;;13.45;32.79;101497.41;5084480;28;20206;-77
2022/03/15 08:05:19;;;;;;;30.57;10.27;;;;;;;13.40;32.38;101481.88;5073236;28;20281;-75
2022/03/15 08:07:46;;;;;;;8.97;8.17;;;;;;;13.89;34.19;101483.56;5090738;28;20248;-69
2022/03/15 08:10:13;;;;;;;32.97;9.53;;;;;;;14.43;31.66;101493.50;5086021;28;20195;-80
2022/03/15 08:12:41;;;;;;;20.00;8.97;;;;;;;14.72;30.22;101496.41;5091891;28;20762;-79
2022/03/15 08:15:10;;;;;;;10.03;8.77;;;;;;;15.02;29.85;101490.22;5090184;28;20263;-82
2022/03/15 08:17:38;;;;;;;9.47;8.20;;;;;;;15.10;29.41;101487.50;5091354;28;20195;-77
2022/03/15 08:20:06;;;;;;;14.07;8.50;;;;;;;15.42;28.75;101487.31;5087190;28;20249;-78
2022/03/15 08:22:35;;;;;;;17.03;8.33;;;;;;;15.61;28.10;101486.81;5091806;28;20272;-78
2022/03/15 08:25:03;;;;;;;12.10;7.30;;;;;;;15.53;27.73;101440.53;5091806;28;20203;-77
2022/03/15 08:27:31;;;;;;;9.20;8.30;;;;;;;15.97;27.46;101492.38;5091933;28;20203;-77
2022/03/15 08:29:58;;;;;;;8.60;7.47;;;;;;;16.04;26.94;101487.13;5091760;28;20244;-75
2022/03/15 08:32:24;;;;;;;9.17;8.27;;;;;;;16.13;27.10;101477.97;5090983;28;20296;-75
2022/03/15 08:34:51;;;;;;;12.87;7.57;;;;;;;15.80;26.98;101480.97;5091532;28;20620;-80
2022/03/15 08:37:18;;;;;;;9.33;8.43;;;;;;;15.47;27.84;101474.22;5091745;28;20571;-80
2022/03/15 08:39:47;;;;;;;9.67;8.63;;;;;;;15.20;28.19;101474.69;5090979;28;20203;-80
2022/03/15 08:42:14;;;;;;;13.73;9.20;;;;;;;15.43;28.28;101470.22;5071523;28;20188;-76
2022/03/15 08:44:42;;;;;;;20.30;9.57;;;;;;;15.90;27.81;101475.34;5071788;28;20687;-78
2022/03/15 08:47:09;;;;;;;10.23;9.07;;;;;;;16.31;27.28;101473.91;5071394;28;20269;-79
2022/03/15 08:49:35;;;;;;;10.40;9.40;;;;;;;16.55;27.08;101476.34;5084504;28;20227;-81
2022/03/15 08:52:02;;;;;;;8.30;7.70;;;;;;;16.69;26.13;101474.63;5094723;28;20763;-79
2022/03/15 08:54:30;;;;;;;19.67;9.53;;;;;;;16.67;26.09;101471.31;5094682;28;20663;-80
2022/03/15 08:56:59;;;;;;;8.57;7.27;;;;;;;16.64;25.33;101469.84;5094338;28;20677;-76
2022/03/15 08:59:25;;;;;;;9.70;8.00;;;;;;;16.12;26.51;101473.63;5094213;28;20640;-80
2022/03/15 09:01:53;;;;;;;8.07;7.20;;;;;;;16.13;26.48;101453.84;5094353;28;20199;-77
2022/03/15 09:04:19;;;;;;;16.50;7.17;;;;;;;16.41;25.67;101455.69;5095192;28;20231;-81
2022/03/15 09:06:47;;;;;;;9.13;7.10;;;;;;;16.34;26.34;101445.88;5094772;28;20203;-78
2022/03/15 09:09:18;;;;;;;8.37;7.67;;;;;;;16.43;26.74;101445.63;5093661;28;20196;-77
2022/03/15 09:11:46;;;;;;;8.67;7.93;;;;;;;16.59;26.70;101442.75;5074288;28;20650;-77
2022/03/15 09:14:14;;;;;;;11.37;7.40;;;;;;;16.83;25.81;101437.06;5074660;28;20232;-82
2022/03/15 09:16:41;;;;;;;10.73;8.27;;;;;;;17.14;25.02;101434.06;5074735;28;20610;-82
2022/03/15 09:19:09;;;;;;;17.43;8.83;;;;;;;17.25;25.08;101436.25;5088735;28;20188;-82
2022/03/15 09:21:36;;;;;;;19.53;9.80;;;;;;;16.67;26.38;101393.50;5095031;28;20258;-79
2022/03/15 09:24:03;;;;;;;12.27;8.63;;;;;;;16.75;26.28;101428.28;5094388;28;20663;-79
2022/03/15 09:26:31;;;;;;;9.17;8.33;;;;;;;16.49;26.19;101427.97;5094480;28;20656;-78
2022/03/15 09:28:57;;;;;;;23.90;13.20;;;;;;;16.68;26.21;101412.09;5094272;28;20682;-80
2022/03/15 09:31:25;;;;;;;13.53;8.67;;;;;;;16.74;25.65;101422.06;5094001;28;20583;-78
2022/03/15 09:33:52;;;;;;;12.20;8.07;;;;;;;16.89;25.11;101413.97;5093717;28;20729;-81
2022/03/15 09:36:19;;;;;;;9.27;8.23;;;;;;;16.96;25.46;101396.09;5094102;28;20199;-78
2022/03/15 09:38:46;;;;;;;12.83;8.20;;;;;;;16.87;25.95;101410.66;5093672;28;20245;-77
2022/03/15 09:41:16;;;;;;;8.63;7.63;;;;;;;17.09;24.70;101406.97;5078959;28;20207;-79
2022/03/15 09:43:45;;;;;;;9.00;8.20;;;;;;;17.13;25.03;101394.81;5084337;28;20284;-73
2022/03/15 09:46:13;;;;;;;9.83;8.07;;;;;;;17.21;25.12;101383.94;5097347;28;20196;-75
2022/03/15 09:48:43;;;;;;;9.87;7.97;;;;;;;17.20;25.19;101380.44;5092031;28;20227;-75
2022/03/15 09:51:14;;;;;;;8.63;7.83;;;;;;;17.32;24.63;101378.06;5092211;28;20179;-79
2022/03/15 09:53:42;;;;;;;10.93;7.87;;;;;;;17.30;25.06;101370.19;5096438;28;20187;-75
2022/03/15 09:56:09;;;;;;;14.80;8.37;;;;;;;17.13;24.78;101350.00;5083047;28;20227;-75
2022/03/15 09:58:35;;;;;;;20.93;8.33;;;;;;;16.75;26.02;101353.13;5090424;28;20195;-74
2022/03/15 10:01:02;;;;;;;16.37;8.60;;;;;;;16.63;26.07;101349.28;5091173;28;20191;-74
2022/03/15 10:03:29;;;;;;;9.70;7.40;;;;;;;16.80;26.19;101345.31;5091981;28;20663;-75
2022/03/15 10:05:58;;;;;;;33.43;9.00;;;;;;;16.85;25.87;101340.22;5092434;28;20239;-73
2022/03/15 10:08:25;;;;;;;8.60;7.27;;;;;;;17.02;25.79;101336.25;5092355;28;20282;-72
2022/03/15 10:10:53;;;;;;;7.80;7.30;;;;;;;17.00;25.99;101331.09;5092372;28;20199;-74
2022/03/15 10:13:21;;;;;;;10.80;7.10;;;;;;;17.26;25.65;101328.63;5092161;28;20222;-73
2022/03/15 10:15:53;;;;;;;8.03;6.73;;;;;;;17.21;24.89;101325.69;5092472;28;20247;-75
2022/03/15 10:18:22;;;;;;;10.07;7.13;;;;;;;17.23;25.14;101320.13;5092784;28;20197;-76
2022/03/15 10:20:49;;;;;;;8.97;6.23;;;;;;;17.41;24.49;101334.75;5091991;28;20230;-76
2022/03/15 10:23:19;;;;;;;53.70;9.00;;;;;;;17.49;24.47;101325.72;5091928;28;20667;-75
2022/03/15 10:25:48;;;;;;;9.83;6.97;;;;;;;17.65;24.01;101320.03;5091940;28;20195;-76
2022/03/15 10:28:16;;;;;;;11.90;7.30;;;;;;;17.62;24.75;101301.63;5091209;28;20200;-76
2022/03/15 10:30:44;;;;;;;14.20;7.70;;;;;;;17.68;23.85;101308.91;5092200;28;20255;-76
2022/03/15 10:33:12;;;;;;;8.37;7.57;;;;;;;17.74;23.62;101302.72;5091915;28;20223;-75
2022/03/15 10:35:41;;;;;;;29.70;8.40;;;;;;;17.72;24.25;101294.03;5091871;28;20195;-74
2022/03/15 10:38:08;;;;;;;28.83;8.53;;;;;;;17.15;24.27;101293.41;5091975;28;20187;-74
2022/03/15 10:40:38;;;;;;;11.30;6.97;;;;;;;17.05;23.78;101280.31;5084111;28;20189;-74
2022/03/15 10:43:07;;;;;;;10.53;6.83;;;;;;;16.95;24.96;101284.34;5073030;28;20200;-74
2022/03/15 10:45:35;;;;;;;7.87;6.73;;;;;;;16.84;25.02;101261.53;5091884;28;20256;-73
2022/03/15 10:48:12;;;;;;;9.80;6.87;;;;;;;17.03;24.96;101276.16;5092499;28;20568;-74
2022/03/15 10:50:50;;;;;;;6.53;6.03;;;;;;;16.96;24.45;101267.22;5092117;28;20187;-74
2022/03/15 10:53:17;;;;;;;7.80;6.43;;;;;;;16.91;24.61;101258.91;5092032;28;20214;-73
2022/03/15 10:55:45;;;;;;;8.30;7.00;;;;;;;16.71;25.07;101247.19;5095501;28;20244;-74
2022/03/15 10:58:15;;;;;;;10.37;6.80;;;;;;;16.68;25.16;101250.25;5112470;28;20329;-75
2022/03/15 11:00:43;;;;;;;13.53;7.43;;;;;;;16.94;25.43;101245.94;5111883;28;20190;-74
2022/03/15 11:03:13;;;;;;;12.27;7.03;;;;;;;17.12;25.72;101237.38;5112301;28;20225;-74
2022/03/15 11:05:41;;;;;;;7.40;6.17;;;;;;;17.17;24.68;101232.25;5112354;28;20230;-74
2022/03/15 11:08:10;;;;;;;8.97;6.10;;;;;;;17.00;24.55;101212.09;5112331;28;20196;-74
2022/03/15 11:10:38;;;;;;;8.07;6.57;;;;;;;17.06;24.53;101222.06;5112205;28;20751;-74
2022/03/15 11:13:11;;;;;;;7.47;6.87;;;;;;;16.59;24.03;101211.16;5111157;28;20581;-73
2022/03/15 11:15:41;;;;;;;9.50;7.73;;;;;;;16.55;29.18;101201.81;5112447;28;20282;-72
2022/03/15 11:18:10;;;;;;;7.27;6.53;;;;;;;16.88;25.29;101208.28;5111429;28;20577;-76